Latest Weather Observations for Casey (Skiway South)*

IDT60801

Issued at 10:05 am EDT Wednesday 26 November 2014 (issued every 30 minutes, with the page automatically refreshed every 10 minutes)

About weather observations | Map of weather stations | Latest weather observations for ANT | Other Formats
Station Details ID: 300060 Name: CASEY SKIWAY SOUTH Lat: -66.28 Lon: 110.76 Height: 390.0 m
Data from the previous 72 hours. | See also: Recent months for locations in Antarctica
Date/Time
EDT
Temp
°C
App
Temp
°C
Dew
Point
Rel
Hum
%
Delta-T
°C
Wind Press
QNH
hPa
Press
MSL
hPa
Rain
since 9 am
mm
Dir
 
Spd
km/h
Gust
km/h
Spd
kts
Gust
kts
26/10:00am -4.9 -14.0 -6.9 86 0.4 E 33 39 18 21 988.4 - -
26/09:30am -5.1 -14.6 -7.1 86 0.4 E 35 41 19 22 988.2 - -
26/09:00am -5.3 -15.2 -7.3 86 0.4 E 37 44 20 24 987.8 - -
26/08:30am -5.5 -15.7 -7.2 88 0.3 E 39 46 21 25 987.5 - -
26/08:00am -5.6 -15.8 -7.1 89 0.2 E 39 44 21 24 987.2 - -
26/07:30am -5.7 -15.9 -6.9 91 0.1 E 39 46 21 25 986.9 - -
26/07:00am -5.8 -15.7 -7.3 89 0.2 E 37 46 20 25 986.5 - -
26/06:30am -5.9 -15.8 -7.3 90 0.2 E 37 43 20 23 986.3 - -
26/06:00am -5.9 -15.0 -7.7 87 0.3 E 33 39 18 21 986.1 - -
26/05:30am -6.0 -14.2 -8.3 84 0.4 ESE 28 33 15 18 986.0 - -
26/05:00am -6.1 -15.3 -8.4 84 0.4 ESE 33 39 18 21 985.7 - -
26/04:30am -6.1 -16.0 -8.2 85 0.4 ESE 37 43 20 23 985.1 - -
26/04:00am -5.7 -16.4 -8.6 80 0.6 E 41 50 22 27 984.7 - -
26/03:30am -5.8 -16.9 -8.2 83 0.5 E 43 50 23 27 984.5 - -
26/03:00am -5.9 -17.2 -8.2 84 0.4 E 44 52 24 28 984.2 - -
26/02:30am -5.8 -17.9 -9.0 78 0.7 E 48 57 26 31 983.7 - -
26/02:00am -5.8 -17.9 -8.8 79 0.6 E 48 59 26 32 983.4 - -
26/01:30am -5.5 -18.0 -8.7 78 0.7 E 50 59 27 32 983.4 - -
26/01:00am -5.5 -17.2 -9.0 76 0.7 E 46 56 25 30 983.2 - -
26/12:30am -5.5 -17.2 -9.2 75 0.8 E 46 54 25 29 983.3 - -
26/12:00am -5.4 -17.9 -8.8 77 0.7 E 50 57 27 31 983.2 - -
 
Date/Time
EDT
Temp
°C
App
Temp
°C
Dew
Point
Rel
Hum
%
Delta-T
°C
Wind Press
QNH
hPa
Press
MSL
hPa
Rain
since 9 am
mm
Dir
 
Spd
km/h
Gust
km/h
Spd
kts
Gust
kts
25/11:30pm -5.6 -18.8 -8.8 78 0.7 E 54 59 29 32 982.8 - -
25/11:00pm -5.2 -18.0 -8.4 78 0.7 E 52 63 28 34 982.8 - -
25/10:30pm -5.1 -18.3 -8.3 78 0.7 E 54 63 29 34 982.8 - -
25/10:00pm -4.9 -18.4 -8.1 78 0.7 E 56 65 30 35 982.7 - -
25/09:30pm -5.1 -18.3 -8.0 80 0.6 E 54 61 29 33 982.6 - -
25/09:00pm -5.0 -18.2 -8.1 79 0.7 E 54 63 29 34 982.8 - -
25/08:30pm -5.1 -18.2 -7.8 81 0.6 E 54 63 29 34 982.7 - -
25/08:00pm -5.1 -18.8 -8.0 80 0.6 E 57 67 31 36 982.4 - -
25/07:30pm -5.1 -17.9 -8.0 80 0.6 E 52 61 28 33 982.5 - -
25/07:00pm -5.3 -19.0 -8.0 81 0.6 E 57 69 31 37 982.3 - -
25/06:30pm -5.0 -18.5 -7.9 80 0.6 E 56 63 30 34 982.0 - -
25/06:00pm -5.2 -19.3 -8.3 79 0.7 E 59 69 32 37 981.8 - -
25/05:30pm -5.3 -19.1 -8.4 79 0.7 E 57 70 31 38 981.7 - -
25/05:00pm -5.2 -19.0 -8.8 76 0.8 E 57 69 31 37 981.7 - -
25/04:30pm -5.3 -18.9 -8.8 76 0.8 E 56 67 30 36 981.9 - -
25/04:00pm -5.1 -18.7 -8.5 77 0.8 E 56 67 30 36 982.1 - -
25/03:30pm -5.1 -19.6 -8.5 77 0.8 E 61 70 33 38 982.0 - -
25/03:00pm -4.8 -18.4 -8.2 77 0.8 E 56 65 30 35 982.1 - -
25/02:30pm -5.0 -18.6 -8.4 77 0.8 E 56 67 30 36 982.3 - -
25/02:00pm -5.4 -19.6 -8.6 78 0.7 E 59 72 32 39 982.3 - -
25/01:30pm -5.4 -20.0 -8.9 76 0.8 E 61 76 33 41 982.1 - -
25/01:00pm -5.4 -19.6 -8.8 77 0.7 E 59 70 32 38 982.1 - -
25/12:30pm -6.0 -21.3 -8.9 80 0.6 E 65 80 35 43 981.7 - -
25/12:00pm -6.0 -21.3 -9.2 78 0.6 E 65 80 35 43 981.8 - -
25/11:30am -6.2 -21.9 -9.1 80 0.6 E 67 80 36 43 981.7 - -
25/11:00am -6.3 -21.6 -9.0 81 0.5 E 65 78 35 42 981.6 - -
25/10:41am -6.1 -21.4 -8.7 82 0.5 E 65 83 35 45 981.4 - -
25/10:30am -6.1 -21.4 -8.5 83 0.4 E 65 80 35 43 981.5 - -
25/10:00am -6.3 -22.0 -8.5 84 0.4 E 67 80 36 43 981.3 - -
25/09:30am -6.3 -22.0 -8.7 83 0.4 E 67 80 36 43 980.9 - -
25/09:00am -6.2 -22.4 -8.6 83 0.4 E 70 82 38 44 980.7 - -
25/08:30am -6.1 -22.4 -8.7 82 0.5 E 70 82 38 44 980.3 - -
25/08:00am -6.4 -23.4 -8.6 84 0.4 E 74 95 40 51 979.9 - -
25/07:35am -6.2 -22.8 -8.3 85 0.4 E 72 93 39 50 979.3 - -
25/07:30am -6.2 -23.2 -8.1 86 0.3 E 74 85 40 46 979.4 - -
25/07:00am -6.4 -23.7 -7.9 89 0.2 E 76 91 41 49 979.2 - -
25/06:30am -6.4 -24.5 -7.9 89 0.2 E 80 93 43 50 978.7 - -
25/06:00am -6.5 -24.6 -8.0 89 0.2 E 80 95 43 51 978.2 - -
25/05:30am -6.3 -24.8 -7.8 89 0.2 E 82 100 44 54 977.9 - -
25/05:08am -6.3 -24.0 -8.0 88 0.2 E 78 106 42 57 977.7 - -
25/05:00am -6.3 -24.4 -8.2 86 0.3 E 80 95 43 51 978.1 - -
25/04:39am -6.1 -24.6 -7.9 87 0.3 E 82 106 44 57 977.6 - -
25/04:30am -6.3 -24.8 -8.0 88 0.2 E 82 98 44 53 977.4 - -
25/04:06am -6.6 -25.1 -8.2 88 0.2 E 82 100 44 54 977.9 - -
25/04:00am -6.7 -25.8 -8.3 88 0.2 E 85 100 46 54 977.7 - -
25/03:32am -6.4 -25.1 -7.9 89 0.2 E 83 102 45 55 977.2 - -
25/03:30am -6.5 -25.2 -8.0 89 0.2 E 83 98 45 53 977.6 - -
25/03:00am -6.5 -23.5 -8.3 87 0.3 E 74 85 40 46 977.9 - -
25/02:30am -6.4 -24.1 -8.2 87 0.3 E 78 89 42 48 978.2 - -
25/02:00am -6.5 -24.6 -8.3 87 0.3 E 80 93 43 50 978.1 - -
25/01:30am -6.8 -25.3 -8.4 88 0.2 E 82 93 44 50 977.6 - -
25/01:00am -6.7 -25.4 -8.3 88 0.2 E 83 95 45 51 977.6 - -
25/12:30am -6.7 -25.4 -8.3 88 0.2 E 83 98 45 53 977.8 - -
25/12:00am -7.0 -26.1 -8.5 89 0.2 E 85 100 46 54 977.2 - -
 
Date/Time
EDT
Temp
°C
App
Temp
°C
Dew
Point
Rel
Hum
%
Delta-T
°C
Wind Press
QNH
hPa
Press
MSL
hPa
Rain
since 9 am
mm
Dir
 
Spd
km/h
Gust
km/h
Spd
kts
Gust
kts
24/11:34pm -7.0 -25.7 -8.6 88 0.2 E 83 102 45 55 977.0 - -
24/11:30pm -7.0 -25.5 -8.5 89 0.2 E 82 98 44 53 977.5 - -
24/11:00pm -6.9 -25.4 -8.5 88 0.2 E 82 93 44 50 977.9 - -
24/10:47pm -6.9 -24.3 -8.5 88 0.2 E 76 95 41 51 977.9 - -
24/10:30pm -6.7 -24.5 -8.5 87 0.3 E 78 93 42 50 978.2 - -
24/10:00pm -6.6 -24.3 -8.4 87 0.3 E 78 91 42 49 977.9 - -
24/09:30pm -6.4 -23.8 -8.3 86 0.3 E 76 91 41 49 978.2 - -
24/09:00pm -6.3 -23.7 -8.2 86 0.3 E 76 93 41 50 978.7 - -
24/08:30pm -6.4 -24.2 -8.5 85 0.3 E 78 91 42 49 978.8 - -
24/08:03pm -6.3 -24.0 -8.2 86 0.3 E 78 98 42 53 978.0 - -
24/08:00pm -6.4 -24.2 -8.5 85 0.3 E 78 91 42 49 978.9 - -
24/07:30pm -6.4 -24.1 -8.3 86 0.3 E 78 91 42 49 978.2 - -
24/07:06pm -6.4 -24.1 -8.2 87 0.3 E 78 96 42 52 978.1 - -
24/07:00pm -6.4 -24.1 -8.3 86 0.3 E 78 91 42 49 978.0 - -
24/06:30pm -6.3 -24.0 -8.4 85 0.3 E 78 89 42 48 978.2 - -
24/06:00pm -6.3 -22.5 -8.5 84 0.4 E 70 85 38 46 979.0 - -
24/05:30pm -6.1 -22.2 -8.7 82 0.5 E 69 82 37 44 979.5 - -
24/05:00pm -6.4 -22.6 -8.5 85 0.3 E 70 85 38 46 979.6 - -
24/04:30pm -6.5 -22.7 -8.6 85 0.3 E 70 82 38 44 979.6 - -
24/04:00pm -6.7 -23.3 -8.8 85 0.3 E 72 89 39 48 979.4 - -
24/03:30pm -6.8 -23.4 -8.7 86 0.3 E 72 85 39 46 979.6 - -
24/03:00pm -7.0 -22.7 -9.1 85 0.3 E 67 76 36 41 980.2 - -
24/02:30pm -6.9 -21.9 -9.1 84 0.3 E 63 72 34 39 980.6 - -
24/02:00pm -7.0 -22.0 -9.4 83 0.4 E 63 74 34 40 981.0 - -
24/01:30pm -7.2 -22.2 -9.4 84 0.3 E 63 76 34 41 981.3 - -
24/01:00pm -7.1 -22.1 -9.3 84 0.3 E 63 72 34 39 981.4 - -
24/12:30pm -6.9 -22.2 -8.8 86 0.3 E 65 76 35 41 981.3 - -
24/12:00pm -6.6 -20.8 -8.7 85 0.3 E 59 69 32 37 981.3 - -
24/11:30am -6.2 -19.0 -8.5 84 0.4 E 52 61 28 33 982.1 - -
24/11:00am -6.2 -17.5 -8.8 82 0.5 E 44 59 24 32 982.5 - -
24/10:30am -6.3 -17.6 -8.5 84 0.4 E 44 54 24 29 982.9 - -
24/10:00am -6.3 -18.0 -8.4 85 0.3 E 46 54 25 29 982.9 - -
24/09:30am -6.5 -18.2 -8.4 86 0.3 E 46 54 25 29 983.0 - -
24/09:00am -6.5 -17.6 -8.4 86 0.3 E 43 52 23 28 983.2 - -
24/08:30am -6.4 -17.7 -8.3 86 0.3 E 44 54 24 29 983.2 - -
24/08:00am -6.3 -17.0 -8.2 86 0.3 E 41 50 22 27 983.1 - -
24/07:30am -6.0 -16.3 -8.3 84 0.4 E 39 44 21 24 983.3 - -
24/07:00am -6.0 -15.6 -8.1 85 0.4 E 35 43 19 23 983.6 - -
24/06:30am -6.0 -15.9 -7.8 87 0.3 E 37 44 20 24 983.4 - -
24/06:00am -6.0 -15.5 -8.0 86 0.3 E 35 43 19 23 983.4 - -
24/05:30am -6.0 -15.5 -7.7 88 0.3 ENE 35 43 19 23 983.6 - -
24/05:00am -6.0 -15.1 -7.5 89 0.2 E 33 41 18 22 983.8 - -
24/04:30am -5.9 -14.4 -7.4 89 0.2 E 30 35 16 19 984.2 - -
24/04:00am -5.8 -14.9 -7.2 90 0.2 ENE 33 39 18 21 984.1 - -
24/03:30am -6.0 -14.9 -7.2 91 0.1 E 32 35 17 19 984.4 - -
24/03:00am -6.1 -15.0 -7.6 89 0.2 ENE 32 35 17 19 984.5 - -
24/02:30am -6.1 -15.0 -7.3 91 0.1 ENE 32 37 17 20 984.6 - -
24/02:00am -6.1 -14.7 -7.8 88 0.3 ENE 30 37 16 20 984.8 - -
24/01:30am -6.3 -14.5 -8.4 85 0.3 ENE 28 35 15 19 984.8 - -
24/01:00am -6.2 -13.0 -9.2 79 0.6 ENE 20 26 11 14 985.1 - -
24/12:30am -6.8 -10.1 -8.2 90 0.1 N 2 7 1 4 985.4 - -
24/12:00am -7.2 -11.2 -8.0 94 0.0 W 6 9 3 5 985.4 - -
 
Date/Time
EDT
Temp
°C
App
Temp
°C
Dew
Point
Rel
Hum
%
Delta-T
°C
Wind Press
QNH
hPa
Press
MSL
hPa
Rain
since 9 am
mm
Dir
 
Spd
km/h
Gust
km/h
Spd
kts
Gust
kts
23/11:30pm -7.3 -11.4 -8.4 92 0.0 WNW 6 11 3 6 985.4 - -
23/11:00pm -5.8 -10.4 -8.4 82 0.5 NNE 9 11 5 6 985.5 - -
23/10:30pm -5.8 -10.4 -8.2 83 0.5 ENE 9 13 5 7 985.5 - -
23/10:00pm -6.0 -10.6 -8.3 84 0.4 ENE 9 13 5 7 985.7 - -
23/09:30pm -6.1 -10.7 -8.2 85 0.4 ENE 9 13 5 7 985.7 - -

Other Formats:

Comma delimited format used in spreadsheet applications
http://www.bom.gov.au/fwo/IDT60803/IDT60803.89809.axf

JavaScript Object Notation format (JSON) in row-major order
http://www.bom.gov.au/fwo/IDT60803/IDT60803.89809.json